createdAt,value
2019-04-10T00:01:04.358Z,32.97
2019-04-10T00:03:37.322Z,31.77
2019-04-10T00:06:04.592Z,31.37
2019-04-10T00:08:33.093Z,31.77
2019-04-10T00:11:02.581Z,32.33
2019-04-10T00:13:31.016Z,33.23
2019-04-10T00:15:59.474Z,32.47
2019-04-10T00:18:27.868Z,32.87
2019-04-10T00:20:56.677Z,32.77
2019-04-10T00:23:25.227Z,33.17
2019-04-10T00:25:53.783Z,33.30
2019-04-10T00:28:23.304Z,33.20
2019-04-10T00:30:51.754Z,33.27
2019-04-10T00:33:20.796Z,33.30
2019-04-10T00:35:49.884Z,33.03
2019-04-10T00:38:18.375Z,33.17
2019-04-10T00:40:47.793Z,32.80
2019-04-10T00:43:17.046Z,33.10
2019-04-10T00:45:46.000Z,34.03
2019-04-10T00:48:15.285Z,34.17
2019-04-10T00:50:44.594Z,33.63
2019-04-10T00:53:13.065Z,33.43
2019-04-10T00:55:41.456Z,34.63
2019-04-10T00:58:10.017Z,33.87
2019-04-10T01:00:39.215Z,34.27
2019-04-10T01:03:07.797Z,34.57
2019-04-10T01:05:36.190Z,33.93
2019-04-10T01:08:04.577Z,35.40
2019-04-10T01:10:32.967Z,35.97
2019-04-10T01:13:01.369Z,36.63
2019-04-10T01:15:30.808Z,35.80
2019-04-10T01:17:59.281Z,36.50
2019-04-10T01:20:27.668Z,35.20
2019-04-10T01:22:57.248Z,36.43
2019-04-10T01:25:26.212Z,36.60
2019-04-10T01:27:54.594Z,35.27
2019-04-10T01:30:22.996Z,36.90
2019-04-10T01:32:52.244Z,36.63
2019-04-10T01:35:20.762Z,37.43
2019-04-10T01:37:54.541Z,36.63
2019-04-10T01:40:20.725Z,37.63
2019-04-10T01:43:02.359Z,38.40
2019-04-10T01:45:20.202Z,37.70
2019-04-10T01:47:48.588Z,37.83
2019-04-10T01:50:17.952Z,37.60
2019-04-10T01:52:47.117Z,39.33
2019-04-10T01:55:23.111Z,39.07
2019-04-10T01:57:46.334Z,39.33
2019-04-10T02:00:19.514Z,39.77
2019-04-10T02:02:54.045Z,39.00
2019-04-10T02:05:22.799Z,39.73
2019-04-10T02:08:01.240Z,39.93
2019-04-10T02:10:21.396Z,40.03
2019-04-10T02:12:50.849Z,40.37
2019-04-10T02:15:19.680Z,39.17
2019-04-10T02:17:48.700Z,40.57
2019-04-10T02:20:17.321Z,40.47
2019-04-10T02:22:45.881Z,40.87
2019-04-10T02:25:15.770Z,40.80
2019-04-10T02:27:44.694Z,41.00
2019-04-10T02:30:15.086Z,42.63
2019-04-10T02:32:47.653Z,41.13
2019-04-10T02:35:17.151Z,41.50
2019-04-10T02:37:44.268Z,42.30
2019-04-10T02:40:15.078Z,41.87
2019-04-10T02:42:45.028Z,42.23
2019-04-10T02:45:14.872Z,43.00
2019-04-10T02:47:45.011Z,42.00
2019-04-10T02:50:14.266Z,42.57
2019-04-10T02:52:43.259Z,42.23
2019-04-10T02:55:12.151Z,43.03
2019-04-10T02:57:41.358Z,43.80
2019-04-10T03:00:11.031Z,42.30
2019-04-10T03:02:41.642Z,44.37
2019-04-10T03:05:10.822Z,43.43
2019-04-10T03:07:40.332Z,45.43
2019-04-10T03:10:20.499Z,44.27
2019-04-10T03:12:41.072Z,43.63
2019-04-10T03:15:12.295Z,44.30
2019-04-10T03:17:40.226Z,44.60
2019-04-10T03:20:09.947Z,44.73
2019-04-10T03:22:38.446Z,43.60
2019-04-10T03:25:08.878Z,44.07
2019-04-10T03:27:38.567Z,45.47
2019-04-10T03:30:10.008Z,44.47
2019-04-10T03:32:43.561Z,44.80
2019-04-10T03:35:14.549Z,45.60
2019-04-10T03:37:43.004Z,46.37
2019-04-10T03:40:11.534Z,46.37
2019-04-10T03:42:39.923Z,45.17
2019-04-10T03:45:09.568Z,46.97
2019-04-10T03:47:38.039Z,46.53
2019-04-10T03:50:08.743Z,46.83
2019-04-10T03:52:37.831Z,47.50
2019-04-10T03:55:06.956Z,46.63
2019-04-10T03:57:36.406Z,47.27
2019-04-10T04:00:06.812Z,47.40
2019-04-10T04:02:35.926Z,47.17
2019-04-10T04:05:06.534Z,47.47
2019-04-10T04:07:35.013Z,46.47
2019-04-10T04:10:04.421Z,47.27
2019-04-10T04:12:32.873Z,46.50
2019-04-10T04:15:02.245Z,47.47
2019-04-10T04:17:32.453Z,48.57
2019-04-10T04:20:00.927Z,48.70
2019-04-10T04:22:29.317Z,49.03
2019-04-10T04:24:58.235Z,48.93
2019-04-10T04:27:27.117Z,48.20
2019-04-10T04:29:55.582Z,48.47
2019-04-10T04:32:24.066Z,46.93
2019-04-10T04:34:52.452Z,49.73
2019-04-10T04:37:20.936Z,48.53
2019-04-10T04:39:49.333Z,50.00
2019-04-10T04:42:17.735Z,48.33
2019-04-10T04:44:46.125Z,50.53
2019-04-10T04:47:15.570Z,49.27
2019-04-10T04:49:44.436Z,49.03
2019-04-10T04:52:14.193Z,48.73
2019-04-10T04:54:43.523Z,49.77
2019-04-10T04:57:12.773Z,49.93
2019-04-10T04:59:41.152Z,50.10
2019-04-10T05:02:10.082Z,49.37
2019-04-10T05:04:39.520Z,49.43
2019-04-10T05:07:08.349Z,49.33
2019-04-10T05:09:39.157Z,49.40
2019-04-10T05:12:07.195Z,52.17
2019-04-10T05:14:35.744Z,50.13
2019-04-10T05:17:04.070Z,49.80
2019-04-10T05:19:32.473Z,50.30
2019-04-10T05:22:01.659Z,50.77
2019-04-10T05:24:30.110Z,51.20
2019-04-10T05:26:59.190Z,50.00
2019-04-10T05:29:30.379Z,48.97
2019-04-10T05:31:58.725Z,50.13
2019-04-10T05:34:27.601Z,49.00
2019-04-10T05:36:56.875Z,48.50
2019-04-10T05:39:25.300Z,50.20
2019-04-10T05:41:54.811Z,48.13
2019-04-10T05:44:23.551Z,50.20
2019-04-10T05:46:52.686Z,50.00
2019-04-10T05:49:21.034Z,50.60
2019-04-10T05:51:50.100Z,51.83
2019-04-10T05:54:19.234Z,50.97
2019-04-10T05:56:47.656Z,51.37
2019-04-10T05:59:16.444Z,50.80
2019-04-10T06:01:45.722Z,50.50
2019-04-10T06:04:14.096Z,50.43
2019-04-10T06:06:42.479Z,50.77
2019-04-10T06:09:10.870Z,50.63
2019-04-10T06:11:39.826Z,50.20
2019-04-10T06:14:10.140Z,51.87
2019-04-10T06:16:38.551Z,50.50
2019-04-10T06:19:07.349Z,50.37
2019-04-10T06:21:35.766Z,50.20
2019-04-10T06:24:04.133Z,52.03
2019-04-10T06:26:32.761Z,50.23
2019-04-10T06:29:02.295Z,51.57
2019-04-10T06:31:30.765Z,50.77
2019-04-10T06:34:00.362Z,50.33
2019-04-10T06:36:29.148Z,51.63
2019-04-10T06:38:57.587Z,50.63
2019-04-10T06:41:26.404Z,51.20
2019-04-10T06:43:55.281Z,50.33
2019-04-10T06:46:24.333Z,51.23
2019-04-10T06:48:52.893Z,50.13
2019-04-10T06:51:21.729Z,52.23
2019-04-10T06:53:59.900Z,51.53
2019-04-10T06:56:20.847Z,52.00
2019-04-10T06:58:49.892Z,52.07
2019-04-10T07:01:20.994Z,53.50
2019-04-10T07:03:58.673Z,52.50
2019-04-10T07:06:21.950Z,52.17
2019-04-10T07:08:52.730Z,52.13
2019-04-10T07:11:21.518Z,52.17
2019-04-10T07:13:49.221Z,51.07
2019-04-10T07:16:17.986Z,52.47
2019-04-10T07:18:49.027Z,52.80
2019-04-10T07:21:16.771Z,51.23
2019-04-10T07:23:45.225Z,52.23
2019-04-10T07:26:18.536Z,52.63
2019-04-10T07:28:45.901Z,52.33
2019-04-10T07:31:14.089Z,51.73
2019-04-10T07:33:42.636Z,52.77
2019-04-10T07:36:13.642Z,52.63
2019-04-10T07:38:41.384Z,51.60
2019-04-10T07:41:15.413Z,51.63
2019-04-10T07:43:40.603Z,51.57
2019-04-10T07:46:09.039Z,50.60
2019-04-10T07:48:37.817Z,51.63
2019-04-10T07:51:06.987Z,49.90
2019-04-10T07:53:35.368Z,52.70
2019-04-10T07:56:07.555Z,52.73
2019-04-10T07:58:33.980Z,49.70
2019-04-10T08:01:02.449Z,51.87
2019-04-10T08:03:31.210Z,53.23
2019-04-10T08:06:00.353Z,54.00
2019-04-10T08:08:29.968Z,51.70
2019-04-10T08:10:59.395Z,51.57
2019-04-10T08:13:28.878Z,52.30
2019-04-10T08:15:58.389Z,52.00
2019-04-10T08:18:27.609Z,51.37
2019-04-10T08:20:57.164Z,50.67
2019-04-10T08:23:25.971Z,49.73
2019-04-10T08:25:56.016Z,50.67
2019-04-10T08:28:24.355Z,51.40
2019-04-10T08:30:52.744Z,51.37
2019-04-10T08:33:21.798Z,52.00
2019-04-10T08:35:50.310Z,52.10
2019-04-10T08:38:18.701Z,51.83
2019-04-10T08:40:48.126Z,52.97
2019-04-10T08:43:16.675Z,53.27
2019-04-10T08:45:50.037Z,52.57
2019-04-10T08:48:15.532Z,53.33
2019-04-10T08:50:44.051Z,53.57
2019-04-10T08:53:12.446Z,53.00
2019-04-10T08:55:42.020Z,51.67
2019-04-10T08:58:11.988Z,52.30
2019-04-10T09:00:40.737Z,50.80
2019-04-10T09:03:09.215Z,52.13
2019-04-10T09:05:37.799Z,57.23
2019-04-10T09:08:06.229Z,53.43
2019-04-10T09:10:34.667Z,52.20
2019-04-10T09:13:04.184Z,50.57
2019-04-10T09:15:32.743Z,51.77
2019-04-10T09:18:02.207Z,54.07
2019-04-10T09:20:30.981Z,51.30
2019-04-10T09:23:15.508Z,52.27
2019-04-10T09:25:29.505Z,52.03
2019-04-10T09:27:58.029Z,52.87
2019-04-10T09:30:26.931Z,51.33
2019-04-10T09:32:55.463Z,52.20
2019-04-10T09:35:24.636Z,52.03
2019-04-10T09:37:53.124Z,51.23
2019-04-10T09:40:22.431Z,50.30
2019-04-10T09:42:50.806Z,50.83
2019-04-10T09:45:20.388Z,51.60
2019-04-10T09:47:48.789Z,51.40
2019-04-10T09:50:17.335Z,50.80
2019-04-10T09:52:46.227Z,52.10
2019-04-10T09:55:15.924Z,51.13
2019-04-10T09:57:45.249Z,50.00
2019-04-10T10:00:15.260Z,51.20
2019-04-10T10:02:43.817Z,50.83
2019-04-10T10:05:12.648Z,49.27
2019-04-10T10:07:41.126Z,50.57
2019-04-10T10:10:10.638Z,49.17
2019-04-10T10:12:39.084Z,50.03
2019-04-10T10:15:09.573Z,49.90
2019-04-10T10:17:39.072Z,48.73
2019-04-10T10:20:08.342Z,49.40
2019-04-10T10:22:37.087Z,49.70
2019-04-10T10:25:07.491Z,48.33
2019-04-10T10:27:36.451Z,48.27
2019-04-10T10:30:11.605Z,49.20
2019-04-10T10:32:42.147Z,48.07
2019-04-10T10:35:11.258Z,48.90
2019-04-10T10:37:40.939Z,47.90
2019-04-10T10:40:10.209Z,48.03
2019-04-10T10:42:40.229Z,47.90
2019-04-10T10:45:10.531Z,48.67
2019-04-10T10:47:40.157Z,48.23
2019-04-10T10:50:09.282Z,52.23
2019-04-10T10:52:37.684Z,48.00
2019-04-10T10:55:07.656Z,48.67
2019-04-10T10:57:36.095Z,47.87
2019-04-10T11:00:08.404Z,49.13
2019-04-10T11:02:37.961Z,47.83
2019-04-10T11:05:07.198Z,48.67
2019-04-10T11:07:35.722Z,48.10
2019-04-10T11:10:06.992Z,48.83
2019-04-10T11:12:35.783Z,48.57
2019-04-10T11:15:05.998Z,50.73
2019-04-10T11:17:35.720Z,47.07
2019-04-10T11:20:08.097Z,48.33
2019-04-10T11:22:37.729Z,48.20
2019-04-10T11:25:07.954Z,49.07
2019-04-10T11:27:36.494Z,49.87
2019-04-10T11:30:08.267Z,48.30
2019-04-10T11:32:38.041Z,48.37
2019-04-10T11:35:07.710Z,49.23
2019-04-10T11:37:43.428Z,49.30
2019-04-10T11:40:08.763Z,50.30
2019-04-10T11:42:39.726Z,48.33
2019-04-10T11:45:10.551Z,48.03
2019-04-10T11:47:39.501Z,48.10
2019-04-10T11:52:44.857Z,48.43
2019-04-10T11:55:13.728Z,46.80
2019-04-10T11:57:39.317Z,48.40
2019-04-10T12:00:18.841Z,49.43
2019-04-10T12:02:45.859Z,49.50
2019-04-10T12:05:18.482Z,47.17
2019-04-10T12:12:43.931Z,49.87
2019-04-10T12:15:12.559Z,50.10
2019-04-10T12:17:40.971Z,49.27
2019-04-10T12:20:09.507Z,50.30
2019-04-10T12:22:38.024Z,49.07
2019-04-10T12:25:07.008Z,47.70
2019-04-10T12:27:35.481Z,47.70
2019-04-10T12:30:06.825Z,49.23
2019-04-10T12:32:35.371Z,48.47
2019-04-10T12:35:05.277Z,48.50
2019-04-10T12:37:33.675Z,49.10
2019-04-10T12:40:02.110Z,49.40
2019-04-10T12:42:30.508Z,49.47
2019-04-10T12:44:59.710Z,48.90
2019-04-10T12:47:28.083Z,49.90
2019-04-10T12:49:56.909Z,50.03
2019-04-10T12:52:26.829Z,47.90
2019-04-10T12:54:55.361Z,49.97
2019-04-10T12:57:23.754Z,49.10
2019-04-10T12:59:52.216Z,49.60
2019-04-10T13:02:22.578Z,49.00
2019-04-10T13:04:50.977Z,48.83
2019-04-10T13:07:19.428Z,49.10
2019-04-10T13:09:48.511Z,48.23
2019-04-10T13:12:17.523Z,48.80
2019-04-10T13:14:46.513Z,49.63
2019-04-10T13:17:15.137Z,48.57
2019-04-10T13:19:43.574Z,49.33
2019-04-10T13:22:11.987Z,48.97
2019-04-10T13:24:40.387Z,47.17
2019-04-10T13:27:08.776Z,46.90
2019-04-10T13:29:37.184Z,46.70
2019-04-10T13:32:06.250Z,47.60
2019-04-10T13:34:35.381Z,47.90
2019-04-10T13:37:04.115Z,47.57
2019-04-10T13:39:32.914Z,48.80
2019-04-10T13:42:01.365Z,48.80
2019-04-10T13:44:30.795Z,47.87
2019-04-10T13:46:59.492Z,48.97
2019-04-10T13:49:28.405Z,46.37
2019-04-10T13:51:56.842Z,48.43
2019-04-10T13:54:26.345Z,45.17
2019-04-10T13:56:55.227Z,48.40
2019-04-10T13:59:24.757Z,47.43
2019-04-10T14:01:53.251Z,47.53
2019-04-10T14:04:22.867Z,49.20
2019-04-10T14:06:53.525Z,50.07
2019-04-10T14:09:34.353Z,49.13
2019-04-10T14:11:53.472Z,51.03
2019-04-10T14:14:22.117Z,51.70
2019-04-10T14:16:50.514Z,49.33
2019-04-10T14:19:18.908Z,49.53
2019-04-10T14:21:47.320Z,50.53
2019-04-10T14:24:17.621Z,50.07
2019-04-10T14:26:52.745Z,48.50
2019-04-10T14:29:21.073Z,50.03
2019-04-10T14:31:51.101Z,49.07
2019-04-10T14:34:20.215Z,48.87
2019-04-10T14:36:49.673Z,47.13
2019-04-10T14:39:21.188Z,49.07
2019-04-10T14:41:49.766Z,48.47
2019-04-10T14:44:18.361Z,47.57
2019-04-10T14:46:46.850Z,48.37
2019-04-10T14:49:15.247Z,47.73
2019-04-10T14:51:44.390Z,46.97
2019-04-10T14:54:15.461Z,47.07
2019-04-10T14:56:44.251Z,47.80
2019-04-10T14:59:12.991Z,47.33
2019-04-10T15:01:42.046Z,48.07
2019-04-10T15:04:10.950Z,48.00
2019-04-10T15:06:41.746Z,48.20
2019-04-10T15:09:25.352Z,49.03
2019-04-10T15:11:49.498Z,47.20
2019-04-10T15:14:17.885Z,47.80
2019-04-10T15:16:54.363Z,46.80
2019-04-10T15:19:16.420Z,47.90
2019-04-10T15:21:45.147Z,49.20
2019-04-10T15:24:13.524Z,47.37
2019-04-10T15:26:41.916Z,48.27
2019-04-10T15:29:10.336Z,47.13
2019-04-10T15:31:39.687Z,45.67
2019-04-10T15:34:08.053Z,46.53
2019-04-10T15:36:36.447Z,47.37
2019-04-10T15:39:07.072Z,48.67
2019-04-10T15:41:35.540Z,46.63
2019-04-10T15:44:04.086Z,46.80
2019-04-10T15:46:33.125Z,48.53
2019-04-10T15:49:02.679Z,47.70
2019-04-10T15:51:32.038Z,48.17
2019-04-10T15:54:01.262Z,46.57
2019-04-10T15:56:29.927Z,48.00
2019-04-10T15:58:58.332Z,47.20
2019-04-10T16:01:28.414Z,46.80
2019-04-10T16:03:56.965Z,48.50
2019-04-10T16:06:25.485Z,46.73
2019-04-10T16:08:53.904Z,47.47
2019-04-10T16:11:27.935Z,45.93
2019-04-10T16:13:59.073Z,47.20
2019-04-10T16:16:31.939Z,48.07
2019-04-10T16:19:20.457Z,46.23
2019-04-10T16:21:50.009Z,47.50
2019-04-10T16:24:20.598Z,47.17
2019-04-10T16:26:49.630Z,45.00
2019-04-10T16:29:18.219Z,47.67
2019-04-10T16:31:46.602Z,48.40
2019-04-10T16:34:15.659Z,47.07
2019-04-10T16:36:44.054Z,48.70
2019-04-10T16:39:15.453Z,47.83
2019-04-10T16:41:44.062Z,47.40
2019-04-10T16:44:13.070Z,48.07
2019-04-10T16:46:42.518Z,47.67
2019-04-10T16:49:11.008Z,47.97
2019-04-10T16:51:40.580Z,47.90
2019-04-10T16:54:08.984Z,47.33
2019-04-10T16:56:38.035Z,47.03
2019-04-10T16:59:06.692Z,49.03
2019-04-10T17:01:35.251Z,47.83
2019-04-10T17:04:04.773Z,47.33
2019-04-10T17:06:34.248Z,48.47
2019-04-10T17:09:02.967Z,47.67
2019-04-10T17:11:31.994Z,46.83
2019-04-10T17:14:00.392Z,47.17
2019-04-10T17:16:29.403Z,47.63
2019-04-10T17:18:59.282Z,46.23
2019-04-10T17:21:30.549Z,48.10
2019-04-10T17:23:58.773Z,47.40
2019-04-10T17:26:27.212Z,47.97
2019-04-10T17:28:56.670Z,47.43
2019-04-10T17:31:26.644Z,47.23
2019-04-10T17:33:56.521Z,46.47
2019-04-10T17:36:25.512Z,46.83
2019-04-10T17:38:55.137Z,46.83
2019-04-10T17:41:23.848Z,49.90
2019-04-10T17:43:54.241Z,48.33
2019-04-10T17:46:22.815Z,45.73
2019-04-10T17:48:51.751Z,46.70
2019-04-10T17:51:21.849Z,47.33
2019-04-10T17:53:50.531Z,46.20
2019-04-10T17:56:20.125Z,46.30
2019-04-10T17:58:49.728Z,47.57
2019-04-10T18:01:20.864Z,46.60
2019-04-10T18:03:53.687Z,45.83
2019-04-10T18:06:21.374Z,48.00
2019-04-10T18:08:49.976Z,44.57
2019-04-10T18:11:18.441Z,44.80
2019-04-10T18:13:46.944Z,45.80
2019-04-10T18:16:15.403Z,43.70
2019-04-10T18:18:45.723Z,45.50
2019-04-10T18:21:15.052Z,46.03
2019-04-10T18:23:43.955Z,46.00
2019-04-10T18:26:12.469Z,45.47
2019-04-10T18:28:41.492Z,46.27
2019-04-10T18:31:10.364Z,46.20
2019-04-10T18:33:38.765Z,45.23
2019-04-10T18:36:07.187Z,49.48
2019-04-10T18:38:35.641Z,46.27
2019-04-10T18:41:07.038Z,48.70
2019-04-10T18:43:34.252Z,46.57
2019-04-10T18:46:10.727Z,45.90
2019-04-10T18:48:32.770Z,46.20
2019-04-10T18:51:01.492Z,46.83
2019-04-10T18:53:30.040Z,46.43
2019-04-10T18:55:58.650Z,46.13
2019-04-10T18:58:29.725Z,44.80
2019-04-10T19:01:14.271Z,49.93
2019-04-10T19:03:59.675Z,44.07
2019-04-10T19:06:28.854Z,44.73
2019-04-10T19:11:33.257Z,43.90
2019-04-10T19:13:57.513Z,43.77
2019-04-10T19:16:27.688Z,43.53
2019-04-10T19:18:56.886Z,44.70
2019-04-10T19:21:25.320Z,44.13
2019-04-10T19:23:55.486Z,44.53
2019-04-10T19:26:24.976Z,43.70
2019-04-10T19:28:53.426Z,45.50
2019-04-10T19:31:26.414Z,41.90
2019-04-10T19:33:56.782Z,47.17
2019-04-10T19:36:25.843Z,44.00
2019-04-10T19:38:54.330Z,42.53
2019-04-10T19:41:30.762Z,42.80
2019-04-10T19:43:52.900Z,42.60
2019-04-10T19:46:21.603Z,42.50
2019-04-10T19:48:51.845Z,43.23
2019-04-10T19:51:20.109Z,42.73
2019-04-10T19:53:49.160Z,41.50
2019-04-10T19:56:18.165Z,40.13
2019-04-10T19:58:46.551Z,41.47
2019-04-10T20:01:14.944Z,41.97
2019-04-10T20:03:44.352Z,45.20
2019-04-10T20:06:12.705Z,40.27
2019-04-10T20:08:41.926Z,41.30
2019-04-10T20:11:10.815Z,39.90
2019-04-10T20:13:39.206Z,40.70
2019-04-10T20:16:07.629Z,38.50
2019-04-10T20:18:37.017Z,38.33
2019-04-10T20:21:05.854Z,41.45
2019-04-10T20:23:34.370Z,39.40
2019-04-10T20:26:03.336Z,37.50
2019-04-10T20:28:33.018Z,34.97
2019-04-10T20:31:02.864Z,34.47
2019-04-10T20:33:32.544Z,33.83
2019-04-10T20:36:00.997Z,33.67
2019-04-10T20:38:31.830Z,30.97
2019-04-10T20:41:00.409Z,34.38
2019-04-10T20:43:30.583Z,31.10
2019-04-10T20:46:00.022Z,30.30
2019-04-10T20:48:28.747Z,31.10
2019-04-10T20:50:57.387Z,30.43
2019-04-10T20:53:26.807Z,28.37
2019-04-10T20:55:55.266Z,28.03
2019-04-10T20:58:23.669Z,29.52
2019-04-10T21:00:52.069Z,27.43
2019-04-10T21:03:20.472Z,28.73
2019-04-10T21:05:48.881Z,28.67
2019-04-10T21:08:19.851Z,29.80
2019-04-10T21:10:49.255Z,26.60
2019-04-10T21:13:19.068Z,26.93
2019-04-10T21:15:48.479Z,25.53
2019-04-10T21:18:17.419Z,24.27
2019-04-10T21:20:45.837Z,24.57
2019-04-10T21:23:15.129Z,24.17
2019-04-10T21:25:45.575Z,23.40
2019-04-10T21:28:14.209Z,20.87
2019-04-10T21:31:00.772Z,19.43
2019-04-10T21:33:33.734Z,20.00
2019-04-10T21:36:02.125Z,18.50
2019-04-10T21:38:30.512Z,17.75
2019-04-10T21:40:59.503Z,16.10
2019-04-10T21:43:28.230Z,16.33
2019-04-10T21:45:57.462Z,15.70
2019-04-10T21:48:26.501Z,15.27
2019-04-10T21:50:54.944Z,14.70
2019-04-10T21:53:24.026Z,14.43
2019-04-10T21:55:53.572Z,13.33
2019-04-10T21:58:22.076Z,13.43
2019-04-10T22:01:01.383Z,12.30
2019-04-10T22:03:30.123Z,12.67
2019-04-10T22:06:17.645Z,12.37
2019-04-10T22:08:48.076Z,12.17
2019-04-10T22:11:16.989Z,11.70
2019-04-10T22:13:48.642Z,12.17
2019-04-10T22:16:19.767Z,12.23
2019-04-10T22:18:50.040Z,11.77
2019-04-10T22:21:18.646Z,12.20
2019-04-10T22:23:47.273Z,11.63
2019-04-10T22:26:15.821Z,10.90
2019-04-10T22:28:45.417Z,11.67
2019-04-10T22:31:13.938Z,11.60
2019-04-10T22:33:42.672Z,11.60
2019-04-10T22:36:11.078Z,12.17
2019-04-10T22:38:39.924Z,11.60
2019-04-10T22:41:19.761Z,11.53
2019-04-10T22:43:38.732Z,12.03
2019-04-10T22:46:07.195Z,11.67
2019-04-10T22:48:35.588Z,11.57
2019-04-10T22:51:04.052Z,11.70
2019-04-10T22:53:33.128Z,11.77
2019-04-10T22:56:01.543Z,12.37
2019-04-10T22:58:29.928Z,12.13
2019-04-10T23:00:58.338Z,12.90
2019-04-10T23:03:27.889Z,12.03
2019-04-10T23:05:56.566Z,12.37
2019-04-10T23:08:25.353Z,12.80
2019-04-10T23:10:53.731Z,12.17
2019-04-10T23:13:22.119Z,12.97
2019-04-10T23:15:51.467Z,12.87
2019-04-10T23:18:19.896Z,13.00
2019-04-10T23:20:48.311Z,13.30
2019-04-10T23:23:16.908Z,12.77
2019-04-10T23:25:45.347Z,12.60
2019-04-10T23:28:13.766Z,12.67
2019-04-10T23:30:43.392Z,13.10
2019-04-10T23:33:12.193Z,12.27
2019-04-10T23:35:41.282Z,13.47
2019-04-10T23:38:09.781Z,12.93
2019-04-10T23:40:38.349Z,13.63
2019-04-10T23:43:12.995Z,12.90
2019-04-10T23:45:37.815Z,13.13
2019-04-10T23:48:06.683Z,13.20
2019-04-10T23:50:35.154Z,13.17
2019-04-10T23:53:04.511Z,13.50
2019-04-10T23:55:32.987Z,14.00
2019-04-10T23:58:02.098Z,14.23
